Time;durP1;ratioP1;P1;durP2;ratioP2;P2;SDS_P1;SDS_P2;PMS_P1;PMS_P2;Temp;Humidity;BMP_temperature;BMP_pressure;BME280_temperature;BME280_humidity;BME280_pressure;Samples;Min_cycle;Max_cycle;Signal;HPM_P1;HPM_P2
2022/05/30 00:02:25;;;;;;;7.55;2.35;;;8.50;99.90;;;;;;4990468;28;20064;-84
2022/05/30 00:04:51;;;;;;;6.13;1.73;;;8.60;99.90;;;;;;5006505;28;20030;-84
2022/05/30 00:07:17;;;;;;;6.05;1.85;;;8.60;99.90;;;;;;5004677;28;20042;-84
2022/05/30 00:09:42;;;;;;;4.68;2.00;;;8.60;99.90;;;;;;5006749;28;20049;-84
2022/05/30 00:12:08;;;;;;;5.93;1.90;;;8.60;99.90;;;;;;4989188;28;20034;-84
2022/05/30 00:14:34;;;;;;;9.75;2.30;;;8.60;99.90;;;;;;5005769;28;20038;-84
2022/05/30 00:17:00;;;;;;;4.65;1.90;;;8.60;99.90;;;;;;5005148;28;20045;-85
2022/05/30 00:19:26;;;;;;;7.72;2.33;;;8.50;99.90;;;;;;5006092;28;21347;-85
2022/05/30 00:21:54;;;;;;;4.90;2.00;;;8.50;99.90;;;;;;5004338;28;20026;-85
2022/05/30 00:24:19;;;;;;;6.63;2.28;;;8.40;99.90;;;;;;5005343;28;20558;-85
2022/05/30 00:26:45;;;;;;;5.43;1.95;;;8.40;99.90;;;;;;5003293;28;20034;-84
2022/05/30 00:29:10;;;;;;;5.30;1.98;;;8.30;99.90;;;;;;4989909;28;20411;-84
2022/05/30 00:31:36;;;;;;;6.25;2.40;;;8.20;99.90;;;;;;5005896;28;20510;-84
2022/05/30 00:34:02;;;;;;;11.18;3.22;;;8.20;99.90;;;;;;5003671;28;20117;-85
2022/05/30 00:36:28;;;;;;;5.85;2.13;;;8.10;99.90;;;;;;5006033;28;20041;-84
2022/05/30 00:38:55;;;;;;;4.20;2.00;;;8.00;99.90;;;;;;5006500;28;20413;-84
2022/05/30 00:41:21;;;;;;;6.25;2.00;;;8.00;99.90;;;;;;4993893;28;20041;-84
2022/05/30 00:43:48;;;;;;;6.57;2.17;;;8.00;99.90;;;;;;4991983;28;20072;-84
2022/05/30 00:46:18;;;;;;;4.82;1.83;;;8.00;99.90;;;;;;5004726;28;20025;-85
2022/05/30 00:48:51;;;;;;;4.50;1.70;;;7.90;99.90;;;;;;5004295;28;20045;-84
2022/05/30 00:51:28;;;;;;;5.75;2.00;;;7.90;99.90;;;;;;5004367;28;20046;-85
2022/05/30 00:53:57;;;;;;;3.63;1.70;;;7.90;99.90;;;;;;4988695;28;20038;-85
2022/05/30 00:56:28;;;;;;;5.93;1.90;;;7.90;99.90;;;;;;4987753;28;20039;-84
2022/05/30 00:58:55;;;;;;;4.50;1.80;;;7.80;99.90;;;;;;5004297;28;20499;-84
2022/05/30 01:01:20;;;;;;;4.25;1.95;;;7.80;99.90;;;;;;5003988;28;20049;-84
2022/05/30 01:06:40;;;;;;;3.97;1.80;;;7.80;99.90;;;;;;5005445;28;20097;-84
2022/05/30 01:09:13;;;;;;;4.32;1.77;;;7.80;99.90;;;;;;5004894;28;20052;-84
2022/05/30 01:12:00;;;;;;;4.72;2.05;;;7.80;99.90;;;;;;5004669;28;20050;-85
2022/05/30 01:14:29;;;;;;;6.45;1.98;;;7.80;99.90;;;;;;5005101;28;20034;-84
2022/05/30 01:16:55;;;;;;;5.30;2.10;;;7.80;99.90;;;;;;5003178;28;20042;-84
2022/05/30 01:19:39;;;;;;;5.88;2.05;;;7.70;99.90;;;;;;4989719;28;20420;-84
2022/05/30 01:22:20;;;;;;;5.22;1.92;;;7.70;99.90;;;;;;5004343;28;20558;-85
2022/05/30 01:25:07;;;;;;;8.90;2.17;;;7.70;99.90;;;;;;4988978;28;20038;-85
2022/05/30 01:27:51;;;;;;;5.85;2.10;;;7.60;99.90;;;;;;5002189;28;20057;-84
2022/05/30 01:30:17;;;;;;;7.40;2.30;;;7.50;99.90;;;;;;5005482;28;20042;-85
2022/05/30 01:32:42;;;;;;;5.40;2.08;;;7.50;99.90;;;;;;4986283;28;20667;-85
2022/05/30 01:35:09;;;;;;;5.05;1.83;;;7.60;99.90;;;;;;5005244;28;20389;-84
2022/05/30 01:37:35;;;;;;;6.07;2.10;;;7.50;99.90;;;;;;5002615;28;20087;-84
2022/05/30 01:40:00;;;;;;;3.35;1.77;;;7.50;99.90;;;;;;5005933;28;20504;-84
2022/05/30 01:42:26;;;;;;;3.47;1.98;;;7.50;99.90;;;;;;5004506;28;20084;-84
2022/05/30 01:44:52;;;;;;;5.28;2.13;;;7.50;99.90;;;;;;5008499;28;20041;-84
2022/05/30 01:47:17;;;;;;;5.72;1.98;;;7.50;99.90;;;;;;5004682;28;20443;-85
2022/05/30 01:49:43;;;;;;;7.05;2.28;;;7.50;99.90;;;;;;5005105;28;20056;-84
2022/05/30 01:52:09;;;;;;;7.70;2.15;;;7.50;99.90;;;;;;5006091;28;20488;-84
2022/05/30 01:54:35;;;;;;;3.97;2.00;;;7.50;99.90;;;;;;5004326;28;20120;-84
2022/05/30 01:57:01;;;;;;;6.57;2.70;;;7.40;99.90;;;;;;4988175;28;20545;-84
2022/05/30 01:59:26;;;;;;;4.18;2.10;;;7.50;99.90;;;;;;5004622;28;20411;-84
2022/05/30 02:01:52;;;;;;;6.45;2.20;;;7.50;99.90;;;;;;4990959;28;20411;-84
2022/05/30 02:04:18;;;;;;;4.60;2.22;;;7.50;99.90;;;;;;4992230;28;20038;-84
2022/05/30 02:06:44;;;;;;;3.17;1.70;;;7.60;99.90;;;;;;4990774;28;20046;-84
2022/05/30 02:09:10;;;;;;;4.97;2.05;;;7.60;99.90;;;;;;5007869;28;20341;-84
2022/05/30 02:11:36;;;;;;;4.35;2.00;;;7.60;99.90;;;;;;5007914;28;20132;-84
2022/05/30 02:14:02;;;;;;;2.97;1.77;;;7.60;99.90;;;;;;5007130;28;20042;-84
2022/05/30 02:19:15;;;;;;;3.88;1.50;;;7.50;99.90;;;;;;5007349;28;20496;-85
2022/05/30 02:21:40;;;;;;;3.75;1.95;;;7.50;99.90;;;;;;5008004;28;20041;-85
2022/05/30 02:24:07;;;;;;;4.13;1.70;;;7.40;99.90;;;;;;5007005;28;20042;-85
2022/05/30 02:26:35;;;;;;;3.88;1.50;;;7.40;99.90;;;;;;4992085;28;20033;-85
2022/05/30 02:29:00;;;;;;;3.72;1.50;;;7.30;99.90;;;;;;5008351;28;20093;-86
2022/05/30 02:31:27;;;;;;;3.42;1.70;;;7.30;99.90;;;;;;5006705;28;20483;-84
2022/05/30 02:36:39;;;;;;;4.95;1.70;;;7.20;99.90;;;;;;5008260;28;20053;-84
2022/05/30 02:39:14;;;;;;;4.53;1.50;;;7.20;99.90;;;;;;5007551;28;20125;-84
2022/05/30 02:41:40;;;;;;;3.90;1.75;;;7.10;99.90;;;;;;5004205;28;20080;-85
2022/05/30 02:44:07;;;;;;;2.58;1.67;;;7.00;99.90;;;;;;5007728;28;20444;-85
2022/05/30 02:46:33;;;;;;;2.90;1.70;;;7.00;99.90;;;;;;5009535;28;20034;-85
2022/05/30 02:48:59;;;;;;;4.40;1.85;;;7.10;99.90;;;;;;5012551;28;20044;-85
2022/05/30 02:51:24;;;;;;;3.70;1.67;;;7.00;99.90;;;;;;4991953;28;20034;-85
2022/05/30 02:53:50;;;;;;;2.83;1.50;;;7.00;99.90;;;;;;4991484;28;20049;-84
2022/05/30 02:56:17;;;;;;;2.97;1.50;;;7.00;99.90;;;;;;4992291;28;20038;-84
2022/05/30 02:58:42;;;;;;;2.65;1.50;;;7.10;99.90;;;;;;5007337;28;20136;-85
2022/05/30 03:01:09;;;;;;;3.45;1.63;;;7.10;99.90;;;;;;5007085;28;20122;-84
2022/05/30 03:03:35;;;;;;;4.32;1.50;;;7.10;99.90;;;;;;5007941;28;20038;-85
2022/05/30 03:06:01;;;;;;;6.20;1.65;;;7.10;99.90;;;;;;5006788;28;20038;-84
2022/05/30 03:08:27;;;;;;;6.10;1.60;;;7.10;99.90;;;;;;4991355;28;20064;-84
2022/05/30 03:10:52;;;;;;;4.80;1.50;;;7.10;99.90;;;;;;5004614;28;20034;-84
2022/05/30 03:13:18;;;;;;;3.53;1.73;;;7.20;99.90;;;;;;4990370;28;20107;-84
2022/05/30 03:15:43;;;;;;;3.92;1.70;;;7.20;99.90;;;;;;4989890;28;20049;-85
2022/05/30 03:18:09;;;;;;;4.00;1.80;;;7.30;99.90;;;;;;4990608;28;20064;-84
2022/05/30 03:20:35;;;;;;;4.35;1.50;;;7.30;99.90;;;;;;5007249;28;20160;-84
2022/05/30 03:23:00;;;;;;;3.88;1.40;;;7.30;99.90;;;;;;5007203;28;20463;-85
2022/05/30 03:25:26;;;;;;;4.63;1.40;;;7.40;99.90;;;;;;5005483;28;20038;-84
2022/05/30 03:27:54;;;;;;;2.53;1.40;;;7.40;99.90;;;;;;4989854;28;20029;-84
2022/05/30 03:30:20;;;;;;;4.22;1.55;;;7.40;99.90;;;;;;5006449;28;20045;-84
2022/05/30 03:32:45;;;;;;;3.78;1.40;;;7.40;99.90;;;;;;5020121;28;20050;-85
2022/05/30 03:35:12;;;;;;;4.20;1.75;;;7.50;99.90;;;;;;5007690;28;20526;-85
2022/05/30 03:37:39;;;;;;;4.25;1.58;;;7.50;99.90;;;;;;4992734;28;20135;-85
2022/05/30 03:40:06;;;;;;;7.55;2.25;;;7.50;99.90;;;;;;5006452;28;20061;-85
2022/05/30 03:42:32;;;;;;;4.03;1.60;;;7.50;99.90;;;;;;5005770;28;21039;-84
2022/05/30 03:44:58;;;;;;;4.15;1.75;;;7.50;99.90;;;;;;5004001;28;20061;-84
2022/05/30 03:47:23;;;;;;;4.30;1.70;;;7.60;99.90;;;;;;4990831;28;20080;-85
2022/05/30 03:49:49;;;;;;;5.07;1.70;;;7.60;99.90;;;;;;4991151;28;20046;-85
2022/05/30 03:52:14;;;;;;;3.63;1.70;;;7.60;99.90;;;;;;4995539;28;20050;-84
2022/05/30 03:54:40;;;;;;;2.47;1.60;;;7.70;99.90;;;;;;5002409;28;20057;-84
2022/05/30 03:57:06;;;;;;;2.55;1.40;;;7.70;99.90;;;;;;5007549;28;20033;-84
2022/05/30 03:59:32;;;;;;;5.75;1.75;;;7.80;99.90;;;;;;4989730;28;20085;-84
2022/05/30 04:01:57;;;;;;;4.13;1.80;;;7.80;99.90;;;;;;5005722;28;20038;-84
2022/05/30 04:04:23;;;;;;;5.03;2.17;;;7.80;99.90;;;;;;5006223;28;20036;-84
2022/05/30 04:06:49;;;;;;;4.95;2.05;;;7.90;99.90;;;;;;5004261;28;20034;-85
2022/05/30 04:09:14;;;;;;;3.97;1.88;;;7.90;99.90;;;;;;5005053;28;20033;-84
2022/05/30 04:11:40;;;;;;;3.17;1.85;;;8.00;99.90;;;;;;5005470;28;20037;-84
2022/05/30 04:14:05;;;;;;;5.88;1.70;;;8.00;99.90;;;;;;4989297;28;20038;-84
2022/05/30 04:16:31;;;;;;;4.70;1.70;;;8.00;99.90;;;;;;5005640;28;20045;-84
2022/05/30 04:18:56;;;;;;;4.97;1.55;;;8.00;99.90;;;;;;5006242;28;20042;-85
2022/05/30 04:21:22;;;;;;;5.07;2.05;;;8.10;99.90;;;;;;5004711;28;20037;-85
2022/05/30 04:23:48;;;;;;;3.80;2.20;;;8.10;99.90;;;;;;5005191;28;20121;-85
2022/05/30 04:26:16;;;;;;;4.60;1.73;;;8.10;99.90;;;;;;5005240;28;20124;-85
2022/05/30 04:28:42;;;;;;;3.28;1.95;;;8.20;99.90;;;;;;5006351;28;20041;-85
2022/05/30 04:31:13;;;;;;;4.18;1.90;;;8.20;99.90;;;;;;5010778;28;20103;-84
2022/05/30 04:33:39;;;;;;;4.00;2.28;;;8.30;99.90;;;;;;5005607;28;20052;-85
2022/05/30 04:36:10;;;;;;;5.15;2.10;;;8.20;99.90;;;;;;5005171;28;20061;-84
2022/05/30 04:38:36;;;;;;;5.05;1.90;;;8.30;99.90;;;;;;5003427;28;20104;-84
2022/05/30 04:41:02;;;;;;;3.50;2.00;;;8.30;99.90;;;;;;5003341;28;20041;-84
2022/05/30 04:43:28;;;;;;;6.78;2.00;;;8.30;99.90;;;;;;5005454;28;20079;-84
2022/05/30 04:46:26;;;;;;;6.00;2.10;;;8.30;99.90;;;;;;5004130;28;20030;-84
2022/05/30 04:48:52;;;;;;;6.35;2.50;;;8.40;99.90;;;;;;5005253;28;20381;-84
2022/05/30 04:51:17;;;;;;;5.45;2.05;;;8.40;99.90;;;;;;4989653;28;20041;-84
2022/05/30 04:53:43;;;;;;;4.45;2.20;;;8.50;99.90;;;;;;5004818;28;20046;-84
2022/05/30 04:56:09;;;;;;;4.82;2.30;;;8.50;99.90;;;;;;5011764;28;20044;-84
2022/05/30 04:58:36;;;;;;;4.85;2.10;;;8.50;99.90;;;;;;5003999;28;20038;-84
2022/05/30 05:01:09;;;;;;;6.45;2.42;;;8.50;99.90;;;;;;4989822;28;20030;-84
2022/05/30 05:03:37;;;;;;;4.50;2.03;;;8.50;99.90;;;;;;5005227;28;20042;-84
2022/05/30 05:06:06;;;;;;;3.67;2.22;;;8.50;99.90;;;;;;5005583;28;20037;-84
2022/05/30 05:08:36;;;;;;;3.80;2.20;;;8.50;99.90;;;;;;5006052;28;20728;-84
2022/05/30 05:11:17;;;;;;;7.65;2.38;;;8.60;99.90;;;;;;4989327;28;20516;-83
2022/05/30 05:13:43;;;;;;;4.85;2.05;;;8.60;99.90;;;;;;5005600;28;20033;-83
2022/05/30 05:16:09;;;;;;;5.43;1.90;;;8.70;99.90;;;;;;5004987;28;20042;-83
2022/05/30 05:18:35;;;;;;;3.53;2.17;;;8.70;99.90;;;;;;5004862;28;20404;-83
2022/05/30 05:21:01;;;;;;;3.65;2.30;;;8.70;99.90;;;;;;5005293;28;20057;-83
2022/05/30 05:23:26;;;;;;;5.97;2.70;;;8.70;99.90;;;;;;5005058;28;20037;-83
2022/05/30 05:25:52;;;;;;;5.72;2.20;;;8.80;99.90;;;;;;5004889;28;20639;-83
2022/05/30 05:28:17;;;;;;;4.35;2.38;;;8.80;99.90;;;;;;5004617;28;20069;-83
2022/05/30 05:30:43;;;;;;;5.18;2.03;;;8.80;99.90;;;;;;5005700;28;20034;-83
2022/05/30 05:33:10;;;;;;;6.40;2.55;;;8.90;99.90;;;;;;5022040;28;20037;-83
2022/05/30 05:35:44;;;;;;;4.63;2.15;;;9.10;99.90;;;;;;5001747;28;20050;-83
2022/05/30 05:38:10;;;;;;;5.43;2.40;;;9.30;99.90;;;;;;4993162;28;20053;-85
2022/05/30 05:40:43;;;;;;;6.60;2.30;;;9.30;99.90;;;;;;5009370;28;20515;-85
2022/05/30 05:43:09;;;;;;;5.90;2.63;;;9.30;99.90;;;;;;5011324;28;20542;-84
2022/05/30 05:45:41;;;;;;;5.75;2.40;;;9.30;99.90;;;;;;5013729;28;20154;-84
2022/05/30 05:48:08;;;;;;;5.57;2.45;;;9.50;99.90;;;;;;5014809;28;20042;-84
2022/05/30 05:50:36;;;;;;;4.85;2.65;;;9.60;99.90;;;;;;5012010;28;20436;-84
2022/05/30 05:53:02;;;;;;;5.15;2.42;;;9.80;99.90;;;;;;4994055;28;21075;-84
2022/05/30 05:55:28;;;;;;;6.03;2.78;;;10.10;99.90;;;;;;5006173;28;20176;-84
2022/05/30 05:57:53;;;;;;;3.65;2.10;;;10.10;99.90;;;;;;4989477;28;20044;-84
2022/05/30 06:00:19;;;;;;;5.55;2.38;;;10.00;99.90;;;;;;5011209;28;20030;-84
2022/05/30 06:02:45;;;;;;;4.32;1.92;;;10.00;99.90;;;;;;5014078;28;20518;-83
2022/05/30 06:05:11;;;;;;;4.20;2.00;;;10.20;99.90;;;;;;5012049;28;20033;-84
2022/05/30 06:07:38;;;;;;;3.95;1.65;;;10.30;99.90;;;;;;5012758;28;20443;-84
2022/05/30 06:10:06;;;;;;;5.32;1.75;;;10.50;99.90;;;;;;5012090;28;20189;-84
2022/05/30 06:12:35;;;;;;;5.30;1.98;;;10.70;99.90;;;;;;5012256;28;20080;-84
2022/05/30 06:15:01;;;;;;;3.65;1.38;;;10.90;99.90;;;;;;5012330;28;20046;-84
2022/05/30 06:17:26;;;;;;;3.90;1.50;;;11.20;99.90;;;;;;5012677;28;20516;-84
2022/05/30 06:19:52;;;;;;;6.00;1.52;;;11.30;99.90;;;;;;5012358;28;20049;-84
2022/05/30 06:22:17;;;;;;;2.65;1.20;;;11.20;99.90;;;;;;5013785;28;20041;-84
2022/05/30 06:24:43;;;;;;;2.50;1.30;;;11.30;99.90;;;;;;5013268;28;20073;-85
2022/05/30 06:27:10;;;;;;;4.95;1.20;;;11.30;99.90;;;;;;4997391;28;20045;-85
2022/05/30 06:29:36;;;;;;;5.55;1.45;;;11.30;99.90;;;;;;5012082;28;20551;-85
2022/05/30 06:32:02;;;;;;;3.35;1.20;;;11.50;99.90;;;;;;5002847;28;20038;-84
2022/05/30 06:34:27;;;;;;;5.60;1.63;;;11.70;99.90;;;;;;4998054;28;20045;-84
2022/05/30 06:36:53;;;;;;;4.32;1.50;;;11.90;99.90;;;;;;5014662;28;20034;-84
2022/05/30 06:39:19;;;;;;;3.55;1.40;;;11.90;99.90;;;;;;5014286;28;20037;-84
2022/05/30 06:41:44;;;;;;;2.67;1.30;;;11.80;99.90;;;;;;5013786;28;20065;-84
2022/05/30 06:44:10;;;;;;;2.55;1.20;;;11.90;99.90;;;;;;5012562;28;20048;-85
2022/05/30 06:46:37;;;;;;;3.42;1.17;;;11.80;99.90;;;;;;4998623;28;20096;-84
2022/05/30 06:49:05;;;;;;;4.13;1.13;;;11.70;99.90;;;;;;5013209;28;20045;-84
2022/05/30 06:51:34;;;;;;;4.30;1.10;;;11.60;99.90;;;;;;4995902;28;20053;-84
2022/05/30 06:54:00;;;;;;;5.90;1.25;;;11.50;99.90;;;;;;4997719;28;20153;-84
2022/05/30 06:56:28;;;;;;;2.65;1.00;;;11.40;99.90;;;;;;5007968;28;20111;-84
2022/05/30 06:58:54;;;;;;;3.85;1.02;;;11.50;99.90;;;;;;4992961;28;20053;-84
2022/05/30 07:01:22;;;;;;;3.40;0.90;;;11.50;99.90;;;;;;4994202;28;20461;-83
2022/05/30 07:03:48;;;;;;;2.42;0.88;;;11.70;99.90;;;;;;4998465;28;20042;-84
2022/05/30 07:06:17;;;;;;;4.85;1.00;;;11.80;99.90;;;;;;4996508;28;20573;-84
2022/05/30 07:08:46;;;;;;;1.77;0.77;;;11.90;99.90;;;;;;5005738;28;20042;-84
2022/05/30 07:11:12;;;;;;;1.63;0.98;;;11.90;99.90;;;;;;4995656;28;20069;-84
2022/05/30 07:13:37;;;;;;;3.78;1.15;;;12.00;99.90;;;;;;4988256;28;20179;-84
2022/05/30 07:16:03;;;;;;;2.03;1.05;;;12.10;99.90;;;;;;4994984;28;20095;-83
2022/05/30 07:18:29;;;;;;;3.10;0.90;;;12.00;99.90;;;;;;5002518;28;20050;-83
2022/05/30 07:20:56;;;;;;;3.53;1.17;;;11.70;99.90;;;;;;5012698;28;20033;-85
2022/05/30 07:23:22;;;;;;;1.55;0.80;;;11.40;99.90;;;;;;5002764;28;20033;-85
2022/05/30 07:25:48;;;;;;;3.25;1.20;;;11.30;99.90;;;;;;4982221;28;20049;-86
2022/05/30 07:28:13;;;;;;;2.30;0.70;;;11.00;99.90;;;;;;4994642;28;20030;-85
2022/05/30 07:30:40;;;;;;;3.25;1.00;;;11.00;99.90;;;;;;5008574;28;20524;-86
2022/05/30 07:33:06;;;;;;;3.03;0.98;;;10.90;99.90;;;;;;4990950;28;20108;-85
2022/05/30 07:35:32;;;;;;;4.35;0.90;;;10.90;99.90;;;;;;4991155;28;20034;-85
2022/05/30 07:37:57;;;;;;;4.25;1.00;;;11.00;99.90;;;;;;4987240;28;20042;-84
2022/05/30 07:40:23;;;;;;;2.78;1.00;;;11.00;99.90;;;;;;5003418;28;20030;-84
2022/05/30 07:42:49;;;;;;;1.30;0.80;;;11.10;99.90;;;;;;5010020;28;20053;-84
2022/05/30 07:45:14;;;;;;;2.63;1.00;;;11.20;99.90;;;;;;5011159;28;20092;-84
2022/05/30 07:47:40;;;;;;;2.60;1.10;;;11.40;99.90;;;;;;5009513;28;20033;-84
2022/05/30 07:50:08;;;;;;;2.63;0.90;;;11.60;99.90;;;;;;4996761;28;20050;-84
2022/05/30 07:52:34;;;;;;;1.88;0.60;;;11.70;99.90;;;;;;4976125;28;20050;-84
2022/05/30 07:55:02;;;;;;;3.22;0.90;;;12.00;99.90;;;;;;4991530;28;20445;-84
2022/05/30 08:00:14;;;;;;;2.90;0.90;;;12.10;99.90;;;;;;4991456;28;20043;-84
2022/05/30 08:02:40;;;;;;;2.00;0.70;;;12.30;99.90;;;;;;4992206;28;20492;-84
2022/05/30 08:05:08;;;;;;;3.10;0.82;;;12.30;99.90;;;;;;4991211;28;20092;-85
2022/05/30 08:07:34;;;;;;;2.05;0.50;;;12.10;99.90;;;;;;4992106;28;20125;-85
2022/05/30 08:10:00;;;;;;;2.97;0.60;;;11.90;99.90;;;;;;4992207;28;20084;-84
2022/05/30 08:12:26;;;;;;;4.07;1.00;;;11.80;99.90;;;;;;4991912;28;20046;-85
2022/05/30 08:14:53;;;;;;;2.15;0.80;;;11.70;99.90;;;;;;4990729;28;20051;-84
2022/05/30 08:17:19;;;;;;;2.65;0.80;;;11.90;99.90;;;;;;4994086;28;20061;-83
2022/05/30 08:19:45;;;;;;;1.90;0.60;;;12.40;99.90;;;;;;4992035;28;20497;-83
2022/05/30 08:22:12;;;;;;;3.33;0.60;;;12.70;99.90;;;;;;4991963;28;20113;-84
2022/05/30 08:24:44;;;;;;;1.63;0.60;;;13.10;99.90;;;;;;4991001;28;20089;-84
2022/05/30 08:27:10;;;;;;;3.08;0.70;;;13.10;99.90;;;;;;4991635;28;20074;-84
2022/05/30 08:29:35;;;;;;;1.92;0.35;;;12.80;99.90;;;;;;5009172;28;20232;-82
2022/05/30 08:32:01;;;;;;;1.40;0.30;;;12.20;99.90;;;;;;4997171;28;20046;-85
2022/05/30 08:34:27;;;;;;;1.35;0.40;;;11.80;99.90;;;;;;4990750;28;20042;-84
2022/05/30 08:36:53;;;;;;;0.50;0.20;;;11.40;99.90;;;;;;4991159;28;20042;-85
2022/05/30 08:42:03;;;;;;;;;;;11.20;99.90;;;;;;4991503;28;20042;-86
2022/05/30 08:44:32;;;;;;;0.90;0.30;;;11.10;99.90;;;;;;4990761;28;20005;-85
2022/05/30 08:47:15;;;;;;;2.05;0.35;;;11.00;99.90;;;;;;4994659;28;20042;-85
2022/05/30 08:49:50;;;;;;;3.22;0.50;;;10.90;99.90;;;;;;5009775;28;20034;-85
2022/05/30 08:52:36;;;;;;;1.52;0.45;;;10.90;99.90;;;;;;5016932;28;20439;-86
2022/05/30 08:55:18;;;;;;;0.93;0.50;;;11.00;99.90;;;;;;4990273;28;20109;-86
2022/05/30 08:58:11;;;;;;;1.05;0.40;;;11.00;99.90;;;;;;5008383;28;20053;-86
2022/05/30 09:00:45;;;;;;;0.65;0.35;;;11.10;99.90;;;;;;5009150;28;20092;-85
2022/05/30 09:03:24;;;;;;;1.58;0.63;;;11.30;99.90;;;;;;5006520;28;20040;-86
2022/05/30 09:05:59;;;;;;;3.00;0.80;;;11.30;99.90;;;;;;5006706;28;20626;-86
2022/05/30 09:08:41;;;;;;;3.17;0.60;;;11.50;99.90;;;;;;4997553;28;20401;-84
2022/05/30 09:11:35;;;;;;;2.65;0.65;;;11.40;99.90;;;;;;5013153;28;20527;-86
2022/05/30 09:14:09;;;;;;;3.05;0.75;;;11.40;99.90;;;;;;5011707;28;20038;-85
2022/05/30 09:16:37;;;;;;;;;;;11.50;99.90;;;;;;5008761;28;20046;-86
2022/05/30 09:19:07;;;;;;;4.38;0.93;;;11.50;99.90;;;;;;4994247;28;19929;-85
2022/05/30 09:21:35;;;;;;;4.50;0.60;;;11.50;99.90;;;;;;5011909;28;20057;-85
2022/05/30 09:24:02;;;;;;;2.97;0.60;;;11.60;99.90;;;;;;5004111;28;20048;-85
2022/05/30 09:26:33;;;;;;;3.95;0.70;;;11.60;99.90;;;;;;5004967;28;20044;-85
2022/05/30 09:29:10;;;;;;;2.03;0.70;;;11.80;99.90;;;;;;5025480;28;20041;-85
2022/05/30 09:31:36;;;;;;;1.20;0.57;;;12.00;99.90;;;;;;5007949;28;20073;-86
2022/05/30 09:34:27;;;;;;;3.50;0.70;;;12.20;99.90;;;;;;5007361;28;20071;-86
2022/05/30 09:36:53;;;;;;;2.25;0.63;;;12.40;99.90;;;;;;4991718;28;20100;-85
2022/05/30 09:39:18;;;;;;;2.90;0.60;;;12.60;99.90;;;;;;5030379;28;20578;-85
2022/05/30 09:41:44;;;;;;;3.30;1.00;;;12.70;99.90;;;;;;5013351;28;20169;-86
2022/05/30 09:44:19;;;;;;;3.05;0.80;;;13.00;99.90;;;;;;5013099;28;20042;-85
2022/05/30 09:46:53;;;;;;;1.88;0.75;;;13.00;99.90;;;;;;4990465;28;20037;-86
2022/05/30 09:49:21;;;;;;;2.72;0.75;;;13.10;99.90;;;;;;5010401;28;20484;-86
2022/05/30 09:51:50;;;;;;;2.78;0.80;;;13.30;99.90;;;;;;5005974;28;20041;-86
2022/05/30 09:54:25;;;;;;;2.35;0.70;;;13.50;99.90;;;;;;5008172;28;20042;-85
2022/05/30 09:57:31;;;;;;;2.10;0.70;;;13.70;99.90;;;;;;5007481;28;20179;-85
2022/05/30 10:00:06;;;;;;;2.03;0.70;;;13.80;99.90;;;;;;5018870;28;20487;-85
2022/05/30 10:02:35;;;;;;;3.53;0.90;;;13.80;99.90;;;;;;4991686;28;20030;-85
2022/05/30 10:05:06;;;;;;;3.80;1.20;;;13.80;99.90;;;;;;5007605;28;20555;-85
2022/05/30 10:07:34;;;;;;;2.67;1.10;;;13.80;99.90;;;;;;4993264;28;20044;-85
2022/05/30 10:10:20;;;;;;;3.00;0.80;;;14.00;99.90;;;;;;5015785;28;20046;-85
2022/05/30 10:13:05;;;;;;;3.38;0.80;;;14.30;99.90;;;;;;5002059;28;20436;-85
2022/05/30 10:15:53;;;;;;;3.08;0.80;;;14.30;99.90;;;;;;4978978;28;20060;-85
2022/05/30 10:18:29;;;;;;;2.10;0.90;;;14.30;99.90;;;;;;5013284;28;20045;-85
2022/05/30 10:21:22;;;;;;;2.72;0.80;;;14.30;99.90;;;;;;4996958;28;20456;-86
2022/05/30 10:30:26;;;;;;;1.20;0.60;;;13.60;99.90;;;;;;4994446;28;20221;-85
2022/05/30 10:33:14;;;;;;;2.03;0.80;;;13.40;99.90;;;;;;4993087;28;20035;-86
2022/05/30 10:36:03;;;;;;;1.08;0.70;;;13.20;99.90;;;;;;4976758;28;20039;-85
2022/05/30 10:38:34;;;;;;;2.30;0.60;;;12.30;99.90;;;;;;4993606;28;20171;-84
2022/05/30 10:41:17;;;;;;;2.90;0.60;;;11.80;99.90;;;;;;4993084;28;20165;-85
2022/05/30 10:44:01;;;;;;;1.98;0.80;;;11.50;99.90;;;;;;4992816;28;20046;-87
2022/05/30 10:46:50;;;;;;;3.45;0.90;;;11.30;99.90;;;;;;4992975;28;20052;-85
2022/05/30 10:49:21;;;;;;;2.75;0.98;;;11.20;99.90;;;;;;4993117;28;20046;-86
2022/05/30 10:51:54;;;;;;;4.28;1.20;;;11.10;99.90;;;;;;4993340;28;20034;-86
2022/05/30 10:54:24;;;;;;;5.15;1.20;;;11.10;99.90;;;;;;4992534;28;20570;-87
2022/05/30 10:56:52;;;;;;;3.22;1.00;;;11.00;99.90;;;;;;4992495;28;20042;-87
2022/05/30 10:59:31;;;;;;;2.78;0.90;;;10.90;99.90;;;;;;4976740;28;20500;-87
2022/05/30 11:02:37;;;;;;;2.88;1.55;;;10.80;99.90;;;;;;5008971;28;20042;-86
2022/05/30 11:05:19;;;;;;;1.55;0.80;;;10.80;99.90;;;;;;4992021;28;20057;-87
2022/05/30 11:08:09;;;;;;;2.63;0.90;;;10.80;99.90;;;;;;4992689;28;20048;-86
2022/05/30 11:10:51;;;;;;;2.40;0.80;;;10.90;99.90;;;;;;4997919;28;20049;-86
2022/05/30 11:13:41;;;;;;;1.73;0.85;;;11.00;99.90;;;;;;5009738;28;20042;-85
2022/05/30 11:16:28;;;;;;;2.15;0.70;;;11.10;99.90;;;;;;5001676;28;20046;-85
2022/05/30 11:19:15;;;;;;;2.00;1.13;;;11.10;99.90;;;;;;4988311;28;20045;-85
2022/05/30 11:21:50;;;;;;;2.55;0.77;;;11.30;99.90;;;;;;5011391;28;20088;-85
2022/05/30 11:24:16;;;;;;;1.77;0.70;;;11.40;99.90;;;;;;5007979;28;20117;-85
2022/05/30 11:27:13;;;;;;;2.03;0.82;;;11.50;99.90;;;;;;4987451;28;20133;-85
2022/05/30 11:29:44;;;;;;;3.15;0.90;;;11.70;99.90;;;;;;4997021;28;20080;-84
2022/05/30 11:32:41;;;;;;;1.25;0.70;;;11.80;99.90;;;;;;5022554;28;20041;-85
2022/05/30 11:35:32;;;;;;;1.30;0.80;;;12.00;99.90;;;;;;5006790;28;20129;-85
2022/05/30 11:38:36;;;;;;;1.45;0.68;;;12.10;99.90;;;;;;4992197;28;20500;-84
2022/05/30 11:41:24;;;;;;;2.13;1.00;;;12.00;99.90;;;;;;4975566;28;20137;-84
2022/05/30 11:44:22;;;;;;;3.15;1.90;;;12.10;99.90;;;;;;5005697;28;20065;-84
2022/05/30 11:47:19;;;;;;;1.90;1.40;;;12.20;99.90;;;;;;5025939;28;20435;-84
2022/05/30 11:50:18;;;;;;;2.65;1.10;;;12.20;99.90;;;;;;5007557;28;20042;-84
2022/05/30 11:52:55;;;;;;;1.85;0.90;;;12.40;99.90;;;;;;4989114;28;20508;-84
2022/05/30 11:55:50;;;;;;;3.13;0.68;;;12.60;99.90;;;;;;5087781;27;20996;-84
2022/05/30 11:58:40;;;;;;;1.73;0.90;;;13.00;99.90;;;;;;5081806;28;20097;-85
2022/05/30 12:01:07;;;;;;;1.80;0.85;;;13.30;99.90;;;;;;5065665;28;20143;-84
2022/05/30 12:03:58;;;;;;;1.05;0.50;;;13.60;99.90;;;;;;5063992;28;20101;-85
2022/05/30 12:06:37;;;;;;;1.63;0.73;;;13.70;99.90;;;;;;5062402;28;20498;-85
2022/05/30 12:09:38;;;;;;;3.00;0.80;;;13.70;99.90;;;;;;5061462;28;20048;-86
2022/05/30 12:12:21;;;;;;;1.85;0.60;;;13.80;99.90;;;;;;5059108;28;20037;-86
2022/05/30 12:15:05;;;;;;;1.75;0.80;;;13.80;99.90;;;;;;5044863;28;20040;-87
2022/05/30 12:24:19;;;;;;;2.47;0.70;;;13.20;99.90;;;;;;5060659;28;20037;-86
2022/05/30 12:26:48;;;;;;;3.80;0.80;;;13.00;99.90;;;;;;5049897;28;20143;-86
2022/05/30 12:29:32;;;;;;;2.45;1.08;;;13.10;99.90;;;;;;5045516;28;20485;-86
2022/05/30 12:32:19;;;;;;;1.40;0.50;;;13.20;99.90;;;;;;5060946;28;20479;-85
2022/05/30 12:37:41;;;;;;;1.95;0.70;;;13.00;99.90;;;;;;5060591;28;20128;-86
2022/05/30 12:40:38;;;;;;;2.17;0.60;;;13.10;99.90;;;;;;5060352;28;20040;-86
2022/05/30 12:43:15;;;;;;;2.95;0.68;;;13.30;99.90;;;;;;5042439;28;20075;-86
2022/05/30 12:45:56;;;;;;;1.10;0.60;;;13.30;99.90;;;;;;5063179;28;20033;-86
2022/05/30 12:48:32;;;;;;;1.67;0.60;;;13.30;99.90;;;;;;5060541;28;20032;-86
2022/05/30 12:51:00;;;;;;;0.98;0.60;;;13.50;99.90;;;;;;5044490;28;20402;-87
2022/05/30 12:53:55;;;;;;;1.92;0.60;;;13.60;99.90;;;;;;5046083;28;20040;-86
2022/05/30 12:56:41;;;;;;;0.70;0.40;;;13.80;99.90;;;;;;5056571;28;20043;-87
2022/05/30 12:59:20;;;;;;;1.50;0.60;;;13.90;99.90;;;;;;5064550;28;20429;-87
2022/05/30 13:01:45;;;;;;;1.25;0.60;;;13.90;99.90;;;;;;5039165;28;20040;-86
2022/05/30 13:04:26;;;;;;;2.70;0.60;;;14.00;99.90;;;;;;5065208;28;20487;-87
2022/05/30 13:06:57;;;;;;;1.60;0.60;;;14.20;99.90;;;;;;5052629;28;20045;-88
2022/05/30 13:09:25;;;;;;;2.42;0.70;;;14.20;99.90;;;;;;5052538;28;20033;-87
2022/05/30 13:12:11;;;;;;;2.13;0.70;;;14.60;99.90;;;;;;5053038;28;20379;-86
2022/05/30 13:14:59;;;;;;;1.20;0.57;;;14.50;99.90;;;;;;5051406;28;20041;-88
2022/05/30 13:17:38;;;;;;;1.52;0.45;;;14.40;99.90;;;;;;5053036;28;20394;-86
2022/05/30 13:20:15;;;;;;;2.25;0.70;;;14.30;99.90;;;;;;5035970;28;20036;-86
2022/05/30 13:22:53;;;;;;;2.50;0.75;;;14.00;99.90;;;;;;5036195;28;20371;-86
2022/05/30 13:25:29;;;;;;;3.67;0.77;;;13.80;99.90;;;;;;5039693;28;20505;-86
2022/05/30 13:28:01;;;;;;;2.92;0.60;;;13.80;99.90;;;;;;5053049;28;20083;-87
2022/05/30 13:30:28;;;;;;;2.33;0.63;;;13.80;99.90;;;;;;5045104;28;20041;-87
2022/05/30 13:32:54;;;;;;;2.03;0.60;;;13.70;99.90;;;;;;5052511;28;20131;-86
2022/05/30 13:35:25;;;;;;;1.33;0.50;;;13.90;99.90;;;;;;5051575;28;20040;-86
2022/05/30 13:38:00;;;;;;;1.63;0.60;;;14.10;99.90;;;;;;5035903;28;20116;-87
2022/05/30 13:40:28;;;;;;;1.23;0.50;;;13.90;99.90;;;;;;5052732;28;20376;-86
2022/05/30 13:43:02;;;;;;;5.65;0.80;;;14.00;99.90;;;;;;5052018;28;20048;-86
2022/05/30 13:45:33;;;;;;;1.73;0.77;;;13.80;99.90;;;;;;5035483;28;20041;-86